createdAt,value
2019-01-06T00:02:45.879Z,3.19
2019-01-06T00:05:35.499Z,3.31
2019-01-06T00:08:15.961Z,3.26
2019-01-06T00:11:14.594Z,3.44
2019-01-06T00:14:02.827Z,3.34
2019-01-06T00:16:47.485Z,3.27
2019-01-06T00:19:46.318Z,3.44
2019-01-06T00:22:34.906Z,3.42
2019-01-06T00:25:24.599Z,3.53
2019-01-06T00:28:25.835Z,3.56
2019-01-06T00:31:18.347Z,3.45
2019-01-06T00:34:20.167Z,3.31
2019-01-06T00:37:08.766Z,3.24
2019-01-06T00:39:58.402Z,3.26
2019-01-06T00:42:57.258Z,3.24
2019-01-06T00:46:05.296Z,3.37
2019-01-06T00:48:54.923Z,3.27
2019-01-06T00:51:57.698Z,3.30
2019-01-06T00:54:59.639Z,3.42
2019-01-06T00:58:01.573Z,3.37
2019-01-06T01:00:57.321Z,3.31
2019-01-06T01:03:46.016Z,3.34
2019-01-06T01:06:42.028Z,3.32
2019-01-06T01:09:48.387Z,3.27
2019-01-06T01:12:36.977Z,3.38
2019-01-06T01:15:33.006Z,3.25
2019-01-06T01:18:25.702Z,3.24
2019-01-06T01:21:27.583Z,3.18
2019-01-06T01:24:17.596Z,3.33
2019-01-06T01:27:05.874Z,3.28
2019-01-06T01:29:54.566Z,3.17
2019-01-06T01:32:53.090Z,3.06
2019-01-06T01:35:48.735Z,3.09
2019-01-06T01:38:42.784Z,3.02
2019-01-06T01:41:35.624Z,3.09
2019-01-06T01:44:25.267Z,3.23
2019-01-06T01:47:13.754Z,3.43
2019-01-06T01:50:10.665Z,3.21
2019-01-06T01:53:01.498Z,3.33
2019-01-06T01:55:51.091Z,3.05
2019-01-06T01:58:40.464Z,3.00
2019-01-06T02:01:49.995Z,2.98
2019-01-06T02:04:47.914Z,3.17
2019-01-06T02:07:42.664Z,3.08
2019-01-06T02:10:32.110Z,3.32
2019-01-06T02:13:21.762Z,3.10
2019-01-06T02:16:10.973Z,3.33
2019-01-06T02:19:03.642Z,3.28
2019-01-06T02:21:52.057Z,3.24
2019-01-06T02:24:48.092Z,3.30
2019-01-06T02:27:55.941Z,3.25
2019-01-06T02:30:39.995Z,3.26
2019-01-06T02:33:44.799Z,3.24
2019-01-06T02:36:43.375Z,3.14
2019-01-06T02:39:31.629Z,3.16
2019-01-06T02:42:20.156Z,3.38
2019-01-06T02:45:06.477Z,3.46
2019-01-06T02:47:50.504Z,3.29
2019-01-06T02:50:38.793Z,3.25
2019-01-06T02:53:20.969Z,3.12
2019-01-06T02:56:10.577Z,3.07
2019-01-06T02:59:09.633Z,3.03
2019-01-06T03:02:11.341Z,3.04
2019-01-06T03:05:13.366Z,3.07
2019-01-06T03:08:01.822Z,3.08
2019-01-06T03:11:03.613Z,3.03
2019-01-06T03:13:56.729Z,2.93
2019-01-06T03:16:55.705Z,2.87
2019-01-06T03:19:45.277Z,3.01
2019-01-06T03:22:43.921Z,3.12
2019-01-06T03:25:48.728Z,3.16
2019-01-06T03:28:43.919Z,3.03
2019-01-06T03:31:39.625Z,3.11
2019-01-06T03:34:28.665Z,3.07
2019-01-06T03:37:33.486Z,3.06
2019-01-06T03:40:20.237Z,3.14
2019-01-06T03:43:08.808Z,3.09
2019-01-06T03:45:57.473Z,3.04
2019-01-06T03:48:59.501Z,3.02
2019-01-06T03:51:48.951Z,3.09
2019-01-06T03:54:50.725Z,3.01
2019-01-06T03:57:46.403Z,3.11
2019-01-06T04:00:34.822Z,3.02
2019-01-06T04:03:36.303Z,3.01
2019-01-06T04:06:28.905Z,2.92
2019-01-06T04:09:13.974Z,2.96
2019-01-06T04:12:22.216Z,2.95
2019-01-06T04:15:20.773Z,2.82
2019-01-06T04:18:13.161Z,2.85
2019-01-06T04:21:12.074Z,2.87
2019-01-06T04:24:06.692Z,2.92
2019-01-06T04:26:55.430Z,2.88
2019-01-06T04:29:48.264Z,2.87
2019-01-06T04:32:41.046Z,2.83
2019-01-06T04:35:36.817Z,2.75
2019-01-06T04:38:25.158Z,2.86
2019-01-06T04:41:32.997Z,2.85
2019-01-06T04:44:16.557Z,2.82
2019-01-06T04:47:24.103Z,2.85
2019-01-06T04:50:22.639Z,2.56
2019-01-06T04:53:11.085Z,2.56
2019-01-06T04:56:13.063Z,2.77
2019-01-06T04:59:15.748Z,2.67
2019-01-06T05:02:18.200Z,2.64
2019-01-06T05:05:06.708Z,2.74
2019-01-06T05:07:57.290Z,2.81
2019-01-06T05:10:55.973Z,2.80
2019-01-06T05:13:44.257Z,2.67
2019-01-06T05:16:32.670Z,2.79
2019-01-06T05:19:22.627Z,2.85
2019-01-06T05:22:11.152Z,2.85
2019-01-06T05:24:59.446Z,2.86
2019-01-06T05:28:04.440Z,2.85
2019-01-06T05:30:54.248Z,2.85
2019-01-06T05:33:42.685Z,2.82
2019-01-06T05:36:35.157Z,2.72
2019-01-06T05:39:25.410Z,2.79
2019-01-06T05:42:33.414Z,2.84
2019-01-06T05:45:21.598Z,2.77
2019-01-06T05:48:23.296Z,2.75
2019-01-06T05:51:03.768Z,2.68
2019-01-06T05:53:59.227Z,2.68
2019-01-06T05:56:54.691Z,2.62
2019-01-06T05:59:56.032Z,2.72
2019-01-06T06:02:51.445Z,2.79
2019-01-06T06:05:43.907Z,2.59
2019-01-06T06:08:36.295Z,2.69
2019-01-06T06:11:23.767Z,2.78
2019-01-06T06:14:16.508Z,2.70
2019-01-06T06:17:09.194Z,2.68
2019-01-06T06:20:07.703Z,2.71
2019-01-06T06:23:00.302Z,2.65
2019-01-06T06:25:48.895Z,2.59
2019-01-06T06:28:47.860Z,2.62
2019-01-06T06:31:52.815Z,2.59
2019-01-06T06:34:45.631Z,2.65
2019-01-06T06:37:29.882Z,2.62
2019-01-06T06:40:25.555Z,2.66
2019-01-06T06:43:13.411Z,2.61
2019-01-06T06:46:01.739Z,2.56
2019-01-06T06:49:00.616Z,2.57
2019-01-06T06:51:49.186Z,2.54
2019-01-06T06:54:45.059Z,2.65
2019-01-06T06:58:38.609Z,2.68
2019-01-06T07:01:39.205Z,2.74
2019-01-06T07:04:29.648Z,2.64
2019-01-06T07:07:18.290Z,2.63
2019-01-06T07:10:06.974Z,2.63
2019-01-06T07:12:56.629Z,2.62
2019-01-06T07:15:44.947Z,2.63
2019-01-06T07:18:41.564Z,2.64
2019-01-06T07:21:37.247Z,2.58
2019-01-06T07:24:25.849Z,2.62
2019-01-06T07:27:14.757Z,2.60
2019-01-06T07:30:10.388Z,2.51
2019-01-06T07:33:00.051Z,2.63
2019-01-06T07:35:52.769Z,2.64
2019-01-06T07:38:40.926Z,2.68
2019-01-06T07:41:30.751Z,2.65
2019-01-06T07:44:20.920Z,2.64
2019-01-06T07:47:13.535Z,2.62
2019-01-06T07:50:03.179Z,2.69
2019-01-06T07:52:51.735Z,2.59
2019-01-06T07:55:50.851Z,2.49
2019-01-06T07:58:39.152Z,2.53
2019-01-06T08:01:40.810Z,2.79
2019-01-06T08:04:29.179Z,2.86
2019-01-06T08:07:17.745Z,2.90
2019-01-06T08:10:06.124Z,2.89
2019-01-06T08:13:05.007Z,2.98
2019-01-06T08:15:53.445Z,2.96
2019-01-06T08:18:42.441Z,3.00
2019-01-06T08:21:30.909Z,3.02
2019-01-06T08:24:26.701Z,2.99
2019-01-06T08:27:15.293Z,2.96
2019-01-06T08:30:19.507Z,3.00
2019-01-06T08:33:18.260Z,3.09
2019-01-06T08:36:22.919Z,3.02
2019-01-06T08:39:12.850Z,3.10
2019-01-06T08:42:02.477Z,3.16
2019-01-06T08:44:53.011Z,3.18
2019-01-06T08:47:45.731Z,3.24
2019-01-06T08:50:39.390Z,3.18
2019-01-06T08:53:38.600Z,3.22
2019-01-06T08:56:27.308Z,3.28
2019-01-06T08:59:32.237Z,3.28
2019-01-06T09:02:28.361Z,3.32
2019-01-06T09:05:26.964Z,3.35
2019-01-06T09:08:16.672Z,3.39
2019-01-06T09:11:09.386Z,3.41
2019-01-06T09:13:53.161Z,3.37
2019-01-06T09:16:41.594Z,3.42
2019-01-06T09:19:23.686Z,3.37
2019-01-06T09:22:12.042Z,3.44
2019-01-06T09:25:15.823Z,3.39
2019-01-06T09:28:04.084Z,3.43
2019-01-06T09:31:12.140Z,3.43
2019-01-06T09:34:03.035Z,3.51
2019-01-06T09:36:51.898Z,3.56
2019-01-06T09:39:40.326Z,3.57
2019-01-06T09:42:29.982Z,3.68
2019-01-06T09:45:23.051Z,3.70
2019-01-06T09:48:21.787Z,3.63
2019-01-06T09:51:09.059Z,3.64
2019-01-06T09:53:58.742Z,3.63
2019-01-06T09:56:54.478Z,3.59
2019-01-06T10:00:02.442Z,3.74
2019-01-06T10:03:04.064Z,3.74
2019-01-06T10:05:52.942Z,3.75
2019-01-06T10:08:45.694Z,3.79
2019-01-06T10:11:41.734Z,3.66
2019-01-06T10:14:30.514Z,3.68
2019-01-06T10:17:32.538Z,3.69
2019-01-06T10:20:22.231Z,3.67
2019-01-06T10:23:15.002Z,3.65
2019-01-06T10:26:04.779Z,3.71
2019-01-06T10:29:00.536Z,3.71
2019-01-06T10:31:50.238Z,3.67
2019-01-06T10:34:39.921Z,3.77
2019-01-06T10:37:46.138Z,3.83
2019-01-06T10:40:26.393Z,3.77
2019-01-06T10:43:16.292Z,3.93
2019-01-06T10:46:24.533Z,3.98
2019-01-06T10:49:16.921Z,4.12
2019-01-06T10:52:25.060Z,4.36
2019-01-06T10:55:25.497Z,4.49
2019-01-06T10:58:20.299Z,4.34
2019-01-06T11:01:08.934Z,4.16
2019-01-06T11:04:04.880Z,4.10
2019-01-06T11:07:06.120Z,3.98
2019-01-06T11:10:13.923Z,4.00
2019-01-06T11:13:06.750Z,3.99
2019-01-06T11:15:57.381Z,3.98
2019-01-06T11:18:50.033Z,4.06
2019-01-06T11:21:46.094Z,4.04
2019-01-06T11:24:51.246Z,4.12
2019-01-06T11:27:56.376Z,3.92
2019-01-06T11:30:44.965Z,4.03
2019-01-06T11:33:34.588Z,3.96
2019-01-06T11:36:42.789Z,3.95
2019-01-06T11:39:37.412Z,3.98
2019-01-06T12:13:12.072Z,4.25
2019-01-06T12:16:20.193Z,4.11
2019-01-06T12:19:24.700Z,4.28
2019-01-06T12:22:20.408Z,4.48
2019-01-06T12:25:13.085Z,4.65
2019-01-06T12:28:02.845Z,4.63
2019-01-06T12:30:51.312Z,4.60
2019-01-06T12:33:54.442Z,4.52
2019-01-06T12:37:01.856Z,4.50
2019-01-06T12:39:58.132Z,4.17
2019-01-06T12:42:50.808Z,4.34
2019-01-06T12:45:54.860Z,4.40
2019-01-06T12:49:08.429Z,4.35
2019-01-06T12:52:07.479Z,4.22
2019-01-06T12:54:56.883Z,4.27
2019-01-06T12:58:01.284Z,4.22
2019-01-06T13:01:02.331Z,4.15
2019-01-06T13:04:06.822Z,4.13
2019-01-06T13:07:12.465Z,4.05
2019-01-06T13:09:57.486Z,4.01
2019-01-06T13:12:50.006Z,4.01
2019-01-06T13:15:43.398Z,3.99
2019-01-06T13:18:44.558Z,4.00
2019-01-06T13:21:33.594Z,3.94
2019-01-06T13:24:34.777Z,3.89
2019-01-06T13:27:36.026Z,3.93
2019-01-06T13:30:22.878Z,3.92
2019-01-06T13:33:23.694Z,3.88
2019-01-06T13:36:21.680Z,3.95
2019-01-06T13:39:30.047Z,3.95
2019-01-06T13:42:32.687Z,3.96
2019-01-06T13:45:21.274Z,3.90
2019-01-06T13:48:16.866Z,3.90
2019-01-06T13:51:16.929Z,3.88
2019-01-06T13:54:30.151Z,4.06
2019-01-06T13:57:17.634Z,4.05
2019-01-06T14:00:06.417Z,4.11
2019-01-06T14:02:56.244Z,4.03
2019-01-06T14:05:52.191Z,4.05
2019-01-06T14:08:42.649Z,4.06
2019-01-06T14:11:47.102Z,3.98
2019-01-06T14:14:36.582Z,3.91
2019-01-06T14:17:26.665Z,3.83
2019-01-06T14:20:16.951Z,3.81
2019-01-06T14:23:18.402Z,3.75
2019-01-06T14:26:06.731Z,3.75
2019-01-06T14:28:55.252Z,3.64
2019-01-06T14:32:03.164Z,3.64
2019-01-06T14:35:02.029Z,3.70
2019-01-06T14:38:13.387Z,3.61
2019-01-06T14:41:15.114Z,3.64
2019-01-06T14:44:17.036Z,3.54
2019-01-06T14:47:21.650Z,3.57
2019-01-06T14:50:09.906Z,3.51
2019-01-06T14:52:59.732Z,3.51
2019-01-06T14:55:56.862Z,3.51
2019-01-06T14:58:46.651Z,3.53
2019-01-06T15:01:39.133Z,3.39
2019-01-06T15:04:42.378Z,3.51
2019-01-06T15:07:44.523Z,3.38
2019-01-06T15:10:33.844Z,3.40
2019-01-06T15:13:38.384Z,3.43
2019-01-06T15:16:37.589Z,3.37
2019-01-06T15:19:36.146Z,3.31
2019-01-06T15:22:28.667Z,3.40
2019-01-06T15:25:27.388Z,3.44
2019-01-06T15:28:13.588Z,3.43
2019-01-06T15:31:00.147Z,3.43
2019-01-06T15:33:58.815Z,3.35
2019-01-06T15:36:51.017Z,3.29
2019-01-06T15:39:39.571Z,3.37
2019-01-06T15:42:27.859Z,3.34
2019-01-06T15:45:17.580Z,3.24
2019-01-06T15:48:13.443Z,3.32
2019-01-06T15:51:03.200Z,3.30
2019-01-06T15:53:51.450Z,3.27
2019-01-06T15:56:38.473Z,3.30
2019-01-06T15:59:27.052Z,3.13
2019-01-06T16:02:28.731Z,3.19
2019-01-06T16:05:33.717Z,3.17
2019-01-06T16:08:26.543Z,3.28
2019-01-06T16:11:19.448Z,3.19
2019-01-06T16:14:09.075Z,3.19
2019-01-06T16:16:58.784Z,3.24
2019-01-06T16:19:47.416Z,3.19
2019-01-06T16:22:55.237Z,3.21
2019-01-06T16:25:44.947Z,3.22
2019-01-06T16:28:43.787Z,3.19
2019-01-06T16:31:43.010Z,3.22
2019-01-06T16:34:38.589Z,3.17
2019-01-06T16:37:26.820Z,3.15
2019-01-06T16:40:15.632Z,3.16
2019-01-06T16:43:10.359Z,3.22
2019-01-06T16:46:24.370Z,3.24
2019-01-06T16:49:23.884Z,3.25
2019-01-06T16:52:19.439Z,3.24
2019-01-06T16:55:10.467Z,3.26
2019-01-06T16:57:56.182Z,3.22
2019-01-06T17:00:45.871Z,3.15
2019-01-06T17:05:48.386Z,3.15
2019-01-06T17:07:03.630Z,3.16
2019-01-06T17:10:05.747Z,3.17
2019-01-06T17:12:55.542Z,3.09
2019-01-06T17:15:44.165Z,2.96
2019-01-06T17:18:38.075Z,3.04
2019-01-06T17:21:27.951Z,3.07
2019-01-06T17:24:35.535Z,3.01
2019-01-06T17:27:27.833Z,3.06
2019-01-06T17:30:22.076Z,3.04
2019-01-06T17:34:07.540Z,3.03
2019-01-06T17:44:16.574Z,3.12
2019-01-06T17:47:23.050Z,3.10
2019-01-06T17:50:10.818Z,3.02
2019-01-06T17:53:09.783Z,3.02
2019-01-06T17:55:58.116Z,3.02
2019-01-06T17:59:03.283Z,2.97
2019-01-06T18:02:08.722Z,3.03
2019-01-06T18:05:10.866Z,3.10
2019-01-06T18:08:16.154Z,3.10
2019-01-06T18:11:12.834Z,3.12
2019-01-06T18:14:02.659Z,3.07
2019-01-06T18:16:47.726Z,3.11
2019-01-06T18:19:37.550Z,3.02
2019-01-06T18:22:36.079Z,3.04
2019-01-06T18:28:32.036Z,3.08
2019-01-06T18:42:56.760Z,2.99
2019-01-06T18:45:42.252Z,3.00
2019-01-06T18:48:31.038Z,2.93
2019-01-06T18:51:32.018Z,2.94
2019-01-06T18:54:17.531Z,2.95
2019-01-06T18:57:09.418Z,2.98
2019-01-06T18:59:58.156Z,2.97
2019-01-06T19:02:48.107Z,3.00
2019-01-06T19:05:34.109Z,2.91
2019-01-06T19:08:36.087Z,2.91
2019-01-06T19:11:48.922Z,2.91
2019-01-06T19:38:30.334Z,2.72
2019-01-06T19:41:36.981Z,2.73
2019-01-06T19:44:39.977Z,2.76
2019-01-06T19:47:49.818Z,2.77
2019-01-06T19:51:02.339Z,2.72
2019-01-06T19:54:00.726Z,2.77
2019-01-06T19:56:51.978Z,2.70
2019-01-06T19:59:43.026Z,2.71
2019-01-06T20:03:03.918Z,2.63
2019-01-06T20:09:15.021Z,2.38
2019-01-06T20:12:28.331Z,2.30
2019-01-06T20:17:54.421Z,2.35
2019-01-06T20:19:16.576Z,2.45
2019-01-06T20:22:04.294Z,2.35
2019-01-06T20:25:13.817Z,2.39
2019-01-06T20:28:23.381Z,2.40
2019-01-06T20:31:16.338Z,2.49
2019-01-06T20:34:24.269Z,2.59
2019-01-06T20:40:34.817Z,2.80
2019-01-06T20:43:23.660Z,2.80
2019-01-06T20:46:26.865Z,2.80
2019-01-06T20:49:19.623Z,2.79
2019-01-06T20:52:12.746Z,2.76
2019-01-06T20:55:10.073Z,2.69
2019-01-06T20:57:56.796Z,2.70
2019-01-06T21:00:45.566Z,2.64
2019-01-06T21:03:38.781Z,2.65
2019-01-06T21:06:28.541Z,2.68
2019-01-06T21:09:25.912Z,2.69
2019-01-06T21:12:40.096Z,2.70
2019-01-06T21:15:42.810Z,2.73
2019-01-06T21:18:34.737Z,2.74
2019-01-06T21:21:49.209Z,2.71
2019-01-06T21:24:39.113Z,2.73
2019-01-06T21:27:33.954Z,2.74
2019-01-06T21:30:34.554Z,2.88
2019-01-06T21:33:29.002Z,2.96
2019-01-06T21:36:18.985Z,2.87
2019-01-06T21:39:13.504Z,2.81
2019-01-06T21:43:09.427Z,2.85
2019-01-06T21:49:32.753Z,2.86
2019-01-06T21:52:56.006Z,2.81
2019-01-06T21:55:55.586Z,2.81
2019-01-06T21:58:47.464Z,2.85
2019-01-06T22:01:46.358Z,2.86
2019-01-06T22:04:36.175Z,2.98
2019-01-06T22:07:27.060Z,2.82
2019-01-06T22:10:21.844Z,2.70
2019-01-06T22:13:10.890Z,2.66
2019-01-06T22:15:58.529Z,2.64
2019-01-06T22:18:57.464Z,2.62
2019-01-06T22:21:47.444Z,2.62
2019-01-06T22:24:52.290Z,2.67
2019-01-06T22:27:40.870Z,2.68
2019-01-06T22:30:39.272Z,2.71
2019-01-06T22:33:38.274Z,2.85
2019-01-06T22:36:26.381Z,2.84
2019-01-06T22:39:32.415Z,2.78
2019-01-06T22:42:34.244Z,2.86
2019-01-06T22:45:33.771Z,2.75
2019-01-06T22:48:29.460Z,2.72
2019-01-06T22:51:28.335Z,2.69
2019-01-06T22:54:16.966Z,2.68
2019-01-06T22:57:05.616Z,2.71
2019-01-06T23:00:07.770Z,2.81
2019-01-06T23:03:06.497Z,2.82
2019-01-06T23:06:11.369Z,2.73
2019-01-06T23:08:59.695Z,2.80
2019-01-06T23:11:58.630Z,2.75
2019-01-06T23:14:47.282Z,2.79
2019-01-06T23:17:34.179Z,2.72
2019-01-06T23:20:23.002Z,2.74
2019-01-06T23:23:16.199Z,2.67
2019-01-06T23:26:04.871Z,2.68
2019-01-06T23:28:54.959Z,2.63
2019-01-06T23:31:38.535Z,2.67
2019-01-06T23:34:27.300Z,2.65
2019-01-06T23:37:13.167Z,2.63
2019-01-06T23:40:01.540Z,2.62
2019-01-06T23:43:06.451Z,2.58
2019-01-06T23:45:56.989Z,2.74
2019-01-06T23:48:36.487Z,2.73
2019-01-06T23:51:29.346Z,2.67
2019-01-06T23:54:19.086Z,2.68
2019-01-06T23:57:23.893Z,2.70
